createdAt,value
2022-11-28T00:00:37.016Z,2.40
2022-11-28T00:03:39.665Z,2.95
2022-11-28T00:06:45.221Z,2.92
2022-11-28T00:09:49.382Z,2.83
2022-11-28T00:12:52.033Z,3.25
2022-11-28T00:15:56.579Z,2.60
2022-11-28T00:19:00.314Z,3.25
2022-11-28T00:22:02.903Z,2.60
2022-11-28T00:25:07.804Z,3.20
2022-11-28T00:28:10.295Z,1.95
2022-11-28T00:31:13.611Z,3.17
2022-11-28T00:34:16.346Z,3.22
2022-11-28T00:37:18.816Z,3.10
2022-11-28T00:40:23.006Z,3.45
2022-11-28T00:43:25.790Z,2.83
2022-11-28T00:46:28.939Z,3.47
2022-11-28T00:49:31.499Z,2.78
2022-11-28T00:52:34.333Z,3.05
2022-11-28T00:55:40.362Z,3.38
2022-11-28T00:58:43.163Z,3.10
2022-11-28T01:01:45.927Z,3.15
2022-11-28T01:04:48.824Z,3.42
2022-11-28T01:07:51.461Z,2.97
2022-11-28T01:10:55.388Z,3.13
2022-11-28T01:13:58.768Z,3.72
2022-11-28T01:17:01.317Z,3.10
2022-11-28T01:20:05.697Z,3.10
2022-11-28T01:23:08.228Z,3.00
2022-11-28T01:26:12.746Z,2.45
2022-11-28T01:29:16.254Z,3.17
2022-11-28T01:32:19.206Z,2.67
2022-11-28T01:35:21.835Z,3.67
2022-11-28T01:38:24.431Z,3.45
2022-11-28T01:41:28.887Z,2.25
2022-11-28T01:44:58.628Z,3.13
2022-11-28T01:48:03.619Z,2.80
2022-11-28T01:51:08.891Z,3.60
2022-11-28T01:54:11.713Z,3.53
2022-11-28T01:57:17.340Z,3.10
2022-11-28T02:00:21.110Z,2.88
2022-11-28T02:03:27.557Z,3.40
2022-11-28T02:06:30.175Z,3.03
2022-11-28T02:09:32.698Z,3.10
2022-11-28T02:12:47.839Z,2.80
2022-11-28T02:16:02.086Z,3.13
2022-11-28T02:19:12.840Z,2.42
2022-11-28T02:22:17.995Z,2.92
2022-11-28T02:25:31.591Z,2.25
2022-11-28T02:28:49.073Z,2.65
2022-11-28T02:32:10.043Z,3.10
2022-11-28T02:35:17.348Z,2.50
2022-11-28T02:38:22.817Z,3.50
2022-11-28T02:41:30.185Z,2.63
2022-11-28T02:44:35.498Z,2.67
2022-11-28T02:47:38.798Z,3.75
2022-11-28T02:50:44.333Z,2.50
2022-11-28T02:53:47.589Z,2.55
2022-11-28T02:56:50.559Z,3.20
2022-11-28T02:59:55.346Z,3.08
2022-11-28T03:03:09.660Z,3.13
2022-11-28T03:06:17.695Z,1.83
2022-11-28T03:09:27.700Z,3.08
2022-11-28T03:12:34.381Z,3.20
2022-11-28T03:15:39.995Z,2.50
2022-11-28T03:18:46.713Z,2.97
2022-11-28T03:21:57.807Z,2.83
2022-11-28T03:25:03.655Z,3.70
2022-11-28T03:28:10.126Z,3.58
2022-11-28T03:31:14.868Z,3.55
2022-11-28T03:34:19.727Z,3.40
2022-11-28T03:37:25.138Z,3.60
2022-11-28T03:40:29.229Z,3.15
2022-11-28T03:43:35.553Z,3.70
2022-11-28T03:46:39.673Z,2.60
2022-11-28T03:49:44.139Z,3.20
2022-11-28T03:52:51.531Z,3.13
2022-11-28T03:55:58.038Z,3.67
2022-11-28T03:59:03.275Z,1.75
2022-11-28T04:02:09.333Z,3.55
2022-11-28T04:05:16.278Z,3.45
2022-11-28T04:08:22.905Z,3.45
2022-11-28T04:11:27.959Z,3.38
2022-11-28T04:14:33.524Z,3.53
2022-11-28T04:17:38.534Z,3.47
2022-11-28T04:20:43.389Z,3.20
2022-11-28T04:23:48.165Z,3.67
2022-11-28T04:26:54.061Z,3.60
2022-11-28T04:29:59.159Z,3.30
2022-11-28T04:33:03.574Z,3.78
2022-11-28T04:36:07.829Z,2.95
2022-11-28T04:39:13.882Z,3.53
2022-11-28T04:42:18.708Z,3.67
2022-11-28T04:45:24.245Z,3.13
2022-11-28T04:48:31.287Z,3.53
2022-11-28T04:51:40.657Z,4.20
2022-11-28T04:54:53.278Z,3.92
2022-11-28T04:57:59.901Z,3.25
2022-11-28T05:01:04.850Z,3.85
2022-11-28T05:04:07.822Z,3.38
2022-11-28T05:07:10.567Z,3.33
2022-11-28T05:10:15.138Z,3.95
2022-11-28T05:13:17.792Z,3.05
2022-11-28T05:16:20.896Z,3.22
2022-11-28T05:19:23.663Z,3.88
2022-11-28T05:22:26.402Z,3.35
2022-11-28T05:25:30.603Z,3.60
2022-11-28T05:28:33.585Z,3.70
2022-11-28T05:31:36.256Z,3.00
2022-11-28T05:34:39.005Z,2.22
2022-11-28T05:37:41.548Z,4.03
2022-11-28T05:40:45.795Z,4.13
2022-11-28T05:43:48.468Z,4.47
2022-11-28T05:46:51.226Z,4.22
2022-11-28T05:49:53.799Z,4.55
2022-11-28T05:52:56.410Z,5.13
2022-11-28T05:56:00.655Z,4.10
2022-11-28T05:59:03.243Z,4.72
2022-11-28T06:02:05.922Z,4.45
2022-11-28T06:05:34.690Z,4.57
2022-11-28T06:08:31.658Z,4.18
2022-11-28T06:11:35.892Z,4.88
2022-11-28T06:14:38.761Z,4.22
2022-11-28T06:17:41.484Z,4.82
2022-11-28T06:20:44.131Z,4.72
2022-11-28T06:23:47.479Z,4.32
2022-11-28T06:26:52.374Z,4.85
2022-11-28T06:29:55.004Z,4.95
2022-11-28T06:32:57.684Z,4.45
2022-11-28T06:36:01.016Z,3.88
2022-11-28T06:39:03.686Z,5.20
2022-11-28T06:42:07.718Z,4.35
2022-11-28T06:45:11.144Z,4.35
2022-11-28T06:48:13.797Z,4.60
2022-11-28T06:51:17.069Z,4.40
2022-11-28T06:54:19.599Z,4.68
2022-11-28T06:57:23.756Z,4.80
2022-11-28T07:00:27.035Z,5.03
2022-11-28T07:03:29.807Z,4.95
2022-11-28T07:06:32.380Z,5.35
2022-11-28T07:09:34.911Z,3.22
2022-11-28T07:12:38.960Z,5.28
2022-11-28T07:15:49.387Z,4.80
2022-11-28T07:18:52.909Z,4.80
2022-11-28T07:21:55.590Z,6.18
2022-11-28T07:24:58.375Z,4.68
2022-11-28T07:28:02.345Z,4.43
2022-11-28T07:31:06.030Z,5.35
2022-11-28T07:34:10.477Z,5.28
2022-11-28T07:37:13.187Z,4.90
2022-11-28T07:40:18.414Z,5.00
2022-11-28T07:43:22.472Z,4.70
2022-11-28T07:46:25.545Z,5.72
2022-11-28T07:49:28.304Z,4.97
2022-11-28T07:52:30.969Z,5.18
2022-11-28T07:55:35.487Z,6.25
2022-11-28T07:58:39.915Z,5.28
2022-11-28T08:01:42.896Z,5.35
2022-11-28T08:04:50.467Z,5.00
2022-11-28T08:07:55.594Z,5.35
2022-11-28T08:11:05.908Z,5.18
2022-11-28T08:14:10.245Z,3.92
2022-11-28T08:17:13.308Z,4.43
2022-11-28T08:20:45.864Z,5.25
2022-11-28T08:24:08.834Z,5.22
2022-11-28T08:27:11.647Z,5.53
2022-11-28T08:30:19.386Z,5.35
2022-11-28T08:33:31.937Z,4.53
2022-11-28T08:36:51.579Z,5.20
2022-11-28T08:39:54.673Z,4.97
2022-11-28T08:43:01.747Z,5.10
2022-11-28T08:46:27.632Z,4.78
2022-11-28T08:50:10.438Z,5.30
2022-11-28T08:53:18.485Z,4.43
2022-11-28T08:56:30.529Z,4.90
2022-11-28T08:59:34.933Z,4.93
2022-11-28T09:02:47.783Z,5.15
2022-11-28T09:06:08.404Z,4.75
2022-11-28T09:09:12.821Z,5.50
2022-11-28T09:12:16.387Z,5.20
2022-11-28T09:15:36.701Z,5.20
2022-11-28T09:19:27.173Z,5.00
2022-11-28T09:22:30.326Z,4.95
2022-11-28T09:25:35.431Z,5.25
2022-11-28T09:28:40.901Z,4.20
2022-11-28T09:31:50.525Z,4.88
2022-11-28T09:34:58.982Z,4.72
2022-11-28T09:38:03.554Z,5.30
2022-11-28T09:41:24.041Z,4.22
2022-11-28T09:44:35.436Z,4.70
2022-11-28T09:48:43.783Z,4.88
2022-11-28T09:51:57.011Z,5.38
2022-11-28T09:55:04.870Z,5.35
2022-11-28T09:58:13.756Z,4.80
2022-11-28T10:01:18.397Z,4.28
2022-11-28T10:04:28.420Z,4.82
2022-11-28T10:07:43.225Z,3.83
2022-11-28T10:15:51.228Z,4.07
2022-11-28T10:19:00.043Z,4.50
2022-11-28T10:22:08.471Z,5.18
2022-11-28T10:25:17.543Z,3.92
2022-11-28T10:28:22.879Z,4.53
2022-11-28T10:31:30.022Z,3.97
2022-11-28T10:34:37.488Z,5.05
2022-11-28T10:37:43.864Z,4.55
2022-11-28T10:40:51.556Z,4.53
2022-11-28T10:43:59.441Z,4.22
2022-11-28T10:47:06.534Z,4.78
2022-11-28T10:50:14.585Z,4.53
2022-11-28T10:53:21.636Z,4.88
2022-11-28T10:56:33.128Z,4.82
2022-11-28T10:59:44.698Z,4.13
2022-11-28T11:02:50.802Z,4.28
2022-11-28T11:05:53.830Z,3.85
2022-11-28T11:08:59.612Z,4.90
2022-11-28T11:12:17.989Z,3.92
2022-11-28T11:15:25.922Z,3.83
2022-11-28T11:18:31.475Z,3.58
2022-11-28T11:21:37.388Z,4.75
2022-11-28T11:24:40.973Z,4.57
2022-11-28T11:27:51.418Z,4.25
2022-11-28T11:31:03.796Z,4.53
2022-11-28T11:34:16.737Z,4.63
2022-11-28T11:37:21.689Z,5.20
2022-11-28T11:40:27.420Z,4.13
2022-11-28T11:43:33.035Z,4.28
2022-11-28T11:46:37.774Z,4.35
2022-11-28T11:49:43.020Z,4.22
2022-11-28T11:53:01.116Z,5.50
2022-11-28T11:56:06.641Z,4.25
2022-11-28T11:59:15.214Z,4.72
2022-11-28T12:02:27.557Z,4.47
2022-11-28T12:06:18.106Z,5.30
2022-11-28T12:09:26.167Z,4.15
2022-11-28T12:12:55.005Z,4.22
2022-11-28T12:16:19.751Z,3.40
2022-11-28T12:19:45.510Z,4.80
2022-11-28T12:22:56.862Z,3.72
2022-11-28T12:26:02.785Z,4.30
2022-11-28T12:29:14.869Z,4.38
2022-11-28T12:32:30.711Z,4.70
2022-11-28T12:35:38.413Z,4.65
2022-11-28T12:38:47.011Z,4.35
2022-11-28T12:42:09.237Z,4.65
2022-11-28T12:45:20.239Z,4.45
2022-11-28T12:48:40.575Z,4.80
2022-11-28T12:51:47.959Z,5.35
2022-11-28T12:54:59.268Z,4.55
2022-11-28T12:58:07.171Z,4.30
2022-11-28T13:01:20.391Z,4.50
2022-11-28T13:04:33.757Z,3.72
2022-11-28T13:07:46.191Z,4.47
2022-11-28T13:10:52.788Z,4.80
2022-11-28T13:14:18.168Z,4.13
2022-11-28T13:17:47.426Z,4.40
2022-11-28T13:21:07.652Z,3.15
2022-11-28T13:24:18.649Z,4.68
2022-11-28T13:27:27.829Z,4.32
2022-11-28T13:30:41.302Z,4.78
2022-11-28T13:33:49.838Z,4.97
2022-11-28T13:40:25.556Z,5.25
2022-11-28T13:43:33.461Z,5.05
2022-11-28T13:46:36.365Z,4.72
2022-11-28T13:49:39.322Z,5.10
2022-11-28T13:52:44.109Z,4.72
2022-11-28T13:55:47.887Z,5.40
2022-11-28T13:58:52.814Z,5.25
2022-11-28T14:02:00.422Z,4.68
2022-11-28T14:05:27.102Z,5.85
2022-11-28T14:08:34.147Z,5.45
2022-11-28T14:11:46.320Z,5.50
2022-11-28T14:15:08.741Z,5.60
2022-11-28T14:18:54.553Z,4.68
2022-11-28T14:21:49.185Z,4.63
2022-11-28T14:24:58.491Z,5.53
2022-11-28T14:28:03.309Z,5.75
2022-11-28T14:31:13.343Z,5.40
2022-11-28T14:34:31.623Z,5.25
2022-11-28T14:37:56.046Z,5.20
2022-11-28T14:41:05.310Z,4.50
2022-11-28T14:44:24.242Z,5.53
2022-11-28T14:47:31.641Z,5.60
2022-11-28T14:50:47.655Z,5.40
2022-11-28T14:53:56.993Z,5.53
2022-11-28T14:57:01.501Z,6.22
2022-11-28T15:00:06.870Z,5.93
2022-11-28T15:03:18.842Z,5.40
2022-11-28T15:06:23.084Z,4.50
2022-11-28T15:09:28.138Z,6.72
2022-11-28T15:12:34.777Z,6.75
2022-11-28T15:15:37.892Z,5.55
2022-11-28T15:18:45.472Z,6.15
2022-11-28T15:21:49.591Z,5.57
2022-11-28T15:24:53.765Z,6.35
2022-11-28T15:27:58.243Z,5.40
2022-11-28T15:31:03.350Z,5.72
2022-11-28T15:34:09.241Z,5.40
2022-11-28T15:37:17.630Z,5.68
2022-11-28T15:40:22.356Z,6.28
2022-11-28T15:43:26.710Z,5.85
2022-11-28T15:46:31.047Z,5.30
2022-11-28T15:49:34.780Z,6.07
2022-11-28T15:52:37.750Z,5.65
2022-11-28T15:55:40.621Z,5.32
2022-11-28T15:58:47.613Z,5.38
2022-11-28T16:01:53.559Z,6.50
2022-11-28T16:05:04.503Z,5.18
2022-11-28T16:08:18.195Z,5.55
2022-11-28T16:11:23.082Z,5.35
2022-11-28T16:14:29.044Z,5.50
2022-11-28T16:17:33.702Z,6.57
2022-11-28T16:20:37.945Z,5.75
2022-11-28T16:23:41.222Z,6.43
2022-11-28T16:26:53.479Z,5.90
2022-11-28T16:29:57.649Z,5.15
2022-11-28T16:33:00.909Z,6.38
2022-11-28T16:36:18.806Z,5.63
2022-11-28T16:39:21.691Z,4.88
2022-11-28T16:42:24.215Z,5.80
2022-11-28T16:45:29.688Z,5.88
2022-11-28T16:48:34.775Z,5.38
2022-11-28T16:51:38.300Z,6.60
2022-11-28T16:54:41.018Z,6.40
2022-11-28T16:57:46.381Z,6.38
2022-11-28T17:00:58.015Z,5.90
2022-11-28T17:04:00.804Z,6.68
2022-11-28T17:07:05.580Z,6.35
2022-11-28T17:10:08.908Z,6.38
2022-11-28T17:13:14.632Z,6.55
2022-11-28T17:16:23.071Z,6.10
2022-11-28T17:19:25.825Z,6.43
2022-11-28T17:22:39.070Z,5.95
2022-11-28T17:25:43.667Z,6.18
2022-11-28T17:28:46.969Z,6.05
2022-11-28T17:31:50.980Z,6.25
2022-11-28T17:34:54.281Z,6.30
2022-11-28T17:38:05.836Z,6.30
2022-11-28T17:41:15.321Z,7.10
2022-11-28T17:44:21.004Z,6.57
2022-11-28T17:47:25.005Z,6.30
2022-11-28T17:50:28.241Z,6.97
2022-11-28T17:53:31.303Z,6.90
2022-11-28T17:56:34.016Z,5.88
2022-11-28T17:59:37.597Z,6.10
2022-11-28T18:02:42.959Z,6.35
2022-11-28T18:05:47.168Z,6.35
2022-11-28T18:08:50.679Z,6.72
2022-11-28T18:11:54.505Z,6.03
2022-11-28T18:14:58.820Z,6.55
2022-11-28T18:18:03.886Z,6.22
2022-11-28T18:21:08.646Z,5.88
2022-11-28T18:24:11.319Z,7.13
2022-11-28T18:27:14.181Z,6.35
2022-11-28T18:30:17.296Z,6.80
2022-11-28T18:33:21.498Z,5.68
2022-11-28T18:36:24.893Z,6.32
2022-11-28T18:39:27.490Z,7.15
2022-11-28T18:42:30.835Z,6.78
2022-11-28T18:45:33.493Z,6.57
2022-11-28T18:48:38.859Z,6.18
2022-11-28T18:51:41.420Z,6.28
2022-11-28T18:54:44.719Z,7.13
2022-11-28T18:57:47.800Z,6.40
2022-11-28T19:00:51.342Z,6.05
2022-11-28T19:03:56.230Z,6.80
2022-11-28T19:07:00.340Z,6.85
2022-11-28T19:10:03.237Z,6.57
2022-11-28T19:13:05.841Z,6.35
2022-11-28T19:16:09.185Z,7.88
2022-11-28T19:19:13.222Z,7.65
2022-11-28T19:22:15.966Z,7.18
2022-11-28T19:25:18.633Z,7.03
2022-11-28T19:28:21.490Z,8.30
2022-11-28T19:31:26.665Z,6.97
2022-11-28T19:34:31.122Z,7.22
2022-11-28T19:37:33.698Z,7.55
2022-11-28T19:40:36.613Z,7.88
2022-11-28T19:43:39.507Z,6.90
2022-11-28T19:46:42.061Z,6.78
2022-11-28T19:49:46.555Z,7.15
2022-11-28T19:52:49.340Z,6.13
2022-11-28T19:55:51.999Z,6.75
2022-11-28T19:58:55.187Z,7.20
2022-11-28T20:01:58.703Z,5.65
2022-11-28T20:05:02.860Z,6.43
2022-11-28T20:08:06.979Z,6.47
2022-11-28T20:11:10.090Z,6.78
2022-11-28T20:14:14.582Z,7.03
2022-11-28T20:17:17.175Z,6.13
2022-11-28T20:20:22.360Z,7.07
2022-11-28T20:23:25.214Z,6.68
2022-11-28T20:26:29.576Z,7.28
2022-11-28T20:29:33.198Z,7.20
2022-11-28T20:32:35.993Z,6.78
2022-11-28T20:35:39.978Z,6.43
2022-11-28T20:38:42.855Z,7.13
2022-11-28T20:41:45.413Z,6.95
2022-11-28T20:44:48.103Z,6.50
2022-11-28T20:47:51.161Z,6.93
2022-11-28T20:50:55.063Z,6.93
2022-11-28T20:53:58.770Z,6.80
2022-11-28T21:00:26.740Z,6.47
2022-11-28T21:03:29.767Z,6.65
2022-11-28T21:06:35.721Z,6.25
2022-11-28T21:09:38.361Z,6.95
2022-11-28T21:12:40.991Z,5.82
2022-11-28T21:15:45.448Z,6.78
2022-11-28T21:18:49.105Z,6.80
2022-11-28T21:21:53.079Z,7.55
2022-11-28T21:24:55.622Z,7.20
2022-11-28T21:27:58.180Z,7.18
2022-11-28T21:31:04.864Z,7.85
2022-11-28T21:34:07.598Z,7.57
2022-11-28T21:37:11.473Z,7.45
2022-11-28T21:40:14.575Z,7.63
2022-11-28T21:43:17.157Z,6.78
2022-11-28T21:46:19.710Z,7.65
2022-11-28T21:49:22.331Z,7.55
2022-11-28T21:52:28.667Z,8.55
2022-11-28T21:55:31.482Z,8.65
2022-11-28T21:58:34.002Z,8.18
2022-11-28T22:01:37.583Z,7.90
2022-11-28T22:04:40.388Z,7.82
2022-11-28T22:07:44.310Z,9.35
2022-11-28T22:10:47.118Z,7.80
2022-11-28T22:13:50.365Z,8.65
2022-11-28T22:16:53.375Z,9.18
2022-11-28T22:19:55.942Z,9.07
2022-11-28T22:23:00.030Z,8.82
2022-11-28T22:26:03.395Z,7.95
2022-11-28T22:29:05.989Z,9.27
2022-11-28T22:32:08.662Z,9.23
2022-11-28T22:35:11.408Z,8.10
2022-11-28T22:38:17.091Z,8.68
2022-11-28T22:41:27.622Z,8.48
2022-11-28T22:44:31.618Z,9.82
2022-11-28T22:47:34.713Z,9.13
2022-11-28T22:50:40.282Z,8.70
2022-11-28T22:53:44.496Z,9.32
2022-11-28T22:56:47.049Z,9.48
2022-11-28T22:59:49.607Z,8.88
2022-11-28T23:02:52.387Z,10.32
2022-11-28T23:05:55.082Z,9.02
2022-11-28T23:08:59.721Z,11.10
2022-11-28T23:12:03.595Z,9.68
2022-11-28T23:15:07.323Z,9.05
2022-11-28T23:18:09.881Z,9.38
2022-11-28T23:21:13.082Z,10.25
2022-11-28T23:24:19.504Z,10.57
2022-11-28T23:27:22.046Z,9.02
2022-11-28T23:30:25.268Z,9.88
2022-11-28T23:33:28.550Z,10.18
2022-11-28T23:36:34.628Z,10.25
2022-11-28T23:39:42.610Z,10.73
2022-11-28T23:42:45.894Z,9.75
2022-11-28T23:45:48.608Z,9.68
2022-11-28T23:48:51.582Z,10.63
2022-11-28T23:51:54.090Z,10.15
2022-11-28T23:54:57.985Z,9.63
2022-11-28T23:58:00.564Z,9.85
